Time;durP1;ratioP1;P1;durP2;ratioP2;P2;SDS_P1;SDS_P2;PMS_P1;PMS_P2;Temp;Humidity;BMP_temperature;BMP_pressure;BME280_temperature;BME280_humidity;BME280_pressure;Samples;Min_cycle;Max_cycle;Signal;HPM_P1;HPM_P2
2022/06/20 00:01:32;;;;;;;;;;;;;;;;;;4981033;28;19957;-94
2022/06/20 00:03:58;;;;;;;;;;;;;;;;;;4965118;28;19925;-94
2022/06/20 00:06:23;;;;;;;;;;;;;;;;;;4962187;28;19915;-94
2022/06/20 00:08:51;;;;;;;;;;;;;;;;;;4979753;28;19925;-94
2022/06/20 00:11:28;;;;;;;;;;;;;;;;;;4965417;28;19922;-94
2022/06/20 00:13:55;;;;;;;;;;;;;;;;;;4974135;28;20012;-95
2022/06/20 00:16:23;;;;;;;;;;;;;;;;;;5005302;28;19985;-93
2022/06/20 00:18:50;;;;;;;;;;;;;;;;;;5003882;28;19918;-93
2022/06/20 00:21:19;;;;;;;;;;;;;;;;;;5004148;28;19921;-93
2022/06/20 00:23:52;;;;;;;;;;;;;;;;;;5007575;28;19944;-92
2022/06/20 00:26:30;;;;;;;;;;;;;;;;;;5007922;28;19917;-94
2022/06/20 00:29:01;;;;;;;;;;;;;;;;;;4996872;28;19918;-94
2022/06/20 00:31:34;;;;;;;;;;;;;;;;;;5000508;28;19910;-93
2022/06/20 00:34:00;;;;;;;;;;;;;;;;;;5011200;28;19925;-93
2022/06/20 00:36:31;;;;;;;;;;;;;;;;;;5001049;28;19922;-94
2022/06/20 00:38:59;;;;;;;;;;;;;;;;;;4994031;28;19989;-94
2022/06/20 00:42:08;;;;;;;;;;;;;;;;;;4998633;28;19918;-94
2022/06/20 00:44:39;;;;;;;;;;;;;;;;;;5014888;28;19921;-94
2022/06/20 00:47:08;;;;;;;;;;;;;;;;;;5014899;28;19925;-94
2022/06/20 00:50:02;;;;;;;;;;;;;;;;;;5012750;28;20341;-94
2022/06/20 00:52:28;;;;;;;;;;;;;;;;;;4990485;28;19921;-94
2022/06/20 00:54:58;;;;;;;;;;;;;;;;;;4992314;28;20378;-94
2022/06/20 00:57:30;;;;;;;;;;;;;;;;;;5004923;28;19967;-93
2022/06/20 01:00:18;;;;;;;;;;;;;;;;;;5004345;28;19924;-94
2022/06/20 01:02:45;;;;;;;;;;;;;;;;;;4986353;28;19917;-94
2022/06/20 01:05:18;;;;;;;;;;;;;;;;;;5003687;28;19953;-94
2022/06/20 01:08:10;;;;;;;;;;;;;;;;;;5005158;28;19917;-94
2022/06/20 01:10:44;;;;;;;;;;;;;;;;;;4984636;28;19918;-94
2022/06/20 01:13:14;;;;;;;;;;;;;;;;;;5006642;28;19984;-93
2022/06/20 01:15:44;;;;;;;;;;;;;;;;;;5007714;28;19925;-94
2022/06/20 01:18:35;;;;;;;;;;;;;;;;;;5003045;28;19918;-93
2022/06/20 01:21:03;;;;;;;;;;;;;;;;;;4995749;28;19924;-96
2022/06/20 01:26:55;;;;;;;;;;;;;;;;;;4976783;29;19929;-92
2022/06/20 01:31:56;;;;;;;;;;;;;;;;;;6112038;23;19931;-94
2022/06/20 01:34:33;;;;;;;;;;;;;;;;;;4970011;28;20028;-94
2022/06/20 01:39:52;;;;;;;;;;;;;;;;;;5006785;28;19940;-94
2022/06/20 01:42:52;;;;;;;;;;;;;;;;;;4974612;28;19922;-94
2022/06/20 01:48:06;;;;;;;;;;;;;;;;;;5008098;28;20293;-95
2022/06/20 01:50:33;;;;;;;;;;;;;;;;;;4991367;28;19925;-94
2022/06/20 01:53:09;;;;;;;;;;;;;;;;;;4995970;28;20289;-94
2022/06/20 01:55:39;;;;;;;;;;;;;;;;;;5011697;28;19924;-94
2022/06/20 01:58:24;;;;;;;;;;;;;;;;;;4993867;28;19918;-92
2022/06/20 02:00:51;;;;;;;;;;;;;;;;;;4994816;28;19918;-95
2022/06/20 02:03:39;;;;;;;;;;;;;;;;;;4995789;28;19924;-94
2022/06/20 02:06:32;;;;;;;;;;;;;;;;;;5001941;28;19953;-95
2022/06/20 02:09:21;;;;;;;;;;;;;;;;;;4973321;28;19918;-95
2022/06/20 02:11:50;;;;;;;;;;;;;;;;;;5013957;28;19924;-94
2022/06/20 02:14:25;;;;;;;;;;;;;;;;;;5005826;28;19979;-93
2022/06/20 02:17:18;;;;;;;;;;;;;;;;;;5010435;28;20289;-94
2022/06/20 02:19:46;;;;;;;;;;;;;;;;;;5012676;28;20006;-93
2022/06/20 02:22:37;;;;;;;;;;;;;;;;;;4987006;28;19918;-95
2022/06/20 02:25:41;;;;;;;;;;;;;;;;;;5001374;28;19978;-94
2022/06/20 02:31:29;;;;;;;;;;;;;;;;;;4939898;29;20006;-95
2022/06/20 02:34:19;;;;;;;;;;;;;;;;;;4933354;29;19919;-93
2022/06/20 02:40:26;;;;;;;;;;;;;;;;;;5003346;23;19923;-95
2022/06/20 02:46:21;;;;;;;;;;;;;;;;;;5090787;23;19926;-94
2022/06/20 02:48:48;;;;;;;;;;;;;;;;;;4968825;28;20359;-94
2022/06/20 02:51:16;;;;;;;;;;;;;;;;;;4986993;28;19914;-94
2022/06/20 02:53:56;;;;;;;;;;;;;;;;;;4988201;28;20001;-94
2022/06/20 02:56:24;;;;;;;;;;;;;;;;;;4983730;28;19914;-95
2022/06/20 02:59:12;;;;;;;;;;;;;;;;;;4971720;28;20291;-94
2022/06/20 03:02:01;;;;;;;;;;;;;;;;;;4974310;28;19918;-94
2022/06/20 03:04:44;;;;;;;;;;;;;;;;;;4992373;28;19926;-94
2022/06/20 03:07:12;;;;;;;;;;;;;;;;;;4986880;28;19918;-94
2022/06/20 03:09:42;;;;;;;;;;;;;;;;;;4967969;28;19918;-93
2022/06/20 03:12:08;;;;;;;;;;;;;;;;;;4967636;28;19922;-94
2022/06/20 03:14:36;;;;;;;;;;;;;;;;;;4970486;28;20387;-91
2022/06/20 03:17:03;;;;;;;;;;;;;;;;;;5003562;28;19949;-93
2022/06/20 03:19:32;;;;;;;;;;;;;;;;;;4981500;28;19918;-94
2022/06/20 03:22:04;;;;;;;;;;;;;;;;;;5001115;28;20411;-92
2022/06/20 03:24:49;;;;;;;;;;;;;;;;;;5036762;23;19928;-90
2022/06/20 03:27:26;;;;;;;;;;;;;;;;;;4954293;29;20506;-94
2022/06/20 03:44:40;;;;;;;;;;;;;;;;;;4757353;27;11297714;-91
2022/06/20 03:47:09;;;;;;;;;;;;;;;;;;5154921;27;19920;-92
2022/06/20 03:49:55;;;;;;;;;;;;;;;;;;5151371;27;19922;-91
2022/06/20 03:52:25;;;;;;;;;;;;;;;;;;5150966;27;19915;-91
2022/06/20 03:55:12;;;;;;;;;;;;;;;;;;5131645;28;19916;-92
2022/06/20 03:57:56;;;;;;;;;;;;;;;;;;5132855;27;19912;-93
2022/06/20 04:00:47;;;;;;;;;;;;;;;;;;5132396;27;19916;-92
2022/06/20 04:03:19;;;;;;;;;;;;;;;;;;5101185;27;19943;-92
2022/06/20 04:06:17;;;;;;;;;;;;;;;;;;5242832;22;19907;-91
2022/06/20 04:11:35;;;;;;;;;;;;;;;;;;5137293;27;19922;-91
2022/06/20 04:14:07;;;;;;;;;;;;;;;;;;5133781;28;20436;-92
2022/06/20 04:16:39;;;;;;;;;;;;;;;;;;5133332;28;19951;-92
2022/06/20 04:19:12;;;;;;;;;;;;;;;;;;5133117;28;19985;-93
2022/06/20 04:22:05;;;;;;;;;;;;;;;;;;5132271;28;20370;-91
2022/06/20 04:24:39;;;;;;;;;;;;;;;;;;5130939;28;19919;-90
2022/06/20 04:27:07;;;;;;;;;;;;;;;;;;5130189;28;19938;-91
2022/06/20 04:29:35;;;;;;;;;;;;;;;;;;5131254;28;19916;-91
2022/06/20 04:32:20;;;;;;;;;;;;;;;;;;5112893;28;19975;-90
2022/06/20 04:35:04;;;;;;;;;;;;;;;;;;5131410;28;19939;-90
2022/06/20 04:37:49;;;;;;;;;;;;;;;;;;5125498;28;19967;-92
2022/06/20 04:40:26;;;;;;;;;;;;;;;;;;5150972;27;19960;-91
2022/06/20 04:43:12;;;;;;;;;;;;;;;;;;5132979;27;20281;-91
2022/06/20 04:45:47;;;;;;;;;;;;;;;;;;5137432;27;19915;-90
2022/06/20 04:48:12;;;;;;;;;;;;;;;;;;5138389;27;19911;-92
2022/06/20 04:50:46;;;;;;;;;;;;;;;;;;5120548;27;20001;-92
2022/06/20 04:53:13;;;;;;;;;;;;;;;;;;5119621;27;20385;-91
2022/06/20 04:55:40;;;;;;;;;;;;;;;;;;5138323;27;19959;-91
2022/06/20 04:58:08;;;;;;;;;;;;;;;;;;5137746;27;19918;-90
2022/06/20 05:00:41;;;;;;;;;;;;;;;;;;5119209;27;19915;-93
2022/06/20 05:03:07;;;;;;;;;;;;;;;;;;5137609;27;19911;-89
2022/06/20 05:05:35;;;;;;;;;;;;;;;;;;5137325;27;19922;-90
2022/06/20 05:08:02;;;;;;;;;;;;;;;;;;5116122;28;19927;-91
2022/06/20 05:10:33;;;;;;;;;;;;;;;;;;5116975;28;19916;-91
2022/06/20 05:13:01;;;;;;;;;;;;;;;;;;5116776;28;19922;-91
2022/06/20 05:15:33;;;;;;;;;;;;;;;;;;5098552;28;19916;-90
2022/06/20 05:18:00;;;;;;;;;;;;;;;;;;5116727;28;20010;-91
2022/06/20 05:20:29;;;;;;;;;;;;;;;;;;5117855;28;19915;-91
2022/06/20 05:22:59;;;;;;;;;;;;;;;;;;5119669;28;19920;-90
2022/06/20 05:25:25;;;;;;;;;;;;;;;;;;5106092;28;19922;-91
2022/06/20 05:27:59;;;;;;;;;;;;;;;;;;5114692;28;19947;-92
2022/06/20 05:30:26;;;;;;;;;;;;;;;;;;5132602;27;19916;-92
2022/06/20 05:32:55;;;;;;;;;;;;;;;;;;5129266;27;19915;-93
2022/06/20 05:35:29;;;;;;;;;;;;;;;;;;5119669;27;19919;-94
2022/06/20 05:37:59;;;;;;;;;;;;;;;;;;5119219;27;19918;-92
2022/06/20 05:40:39;;;;;;;;;;;;;;;;;;5130199;27;19920;-92
2022/06/20 05:43:11;;;;;;;;;;;;;;;;;;5120692;27;20014;-92
2022/06/20 05:45:38;;;;;;;;;;;;;;;;;;5097232;27;19922;-92
2022/06/20 05:48:10;;;;;;;;;;;;;;;;;;5117539;27;19955;-91
2022/06/20 05:50:48;;;;;;;;;;;;;;;;;;5132383;27;19927;-91
2022/06/20 05:53:23;;;;;;;;;;;;;;;;;;5117290;27;19916;-90
2022/06/20 05:55:49;;;;;;;;;;;;;;;;;;5129115;27;19919;-91
2022/06/20 05:58:26;;;;;;;;;;;;;;;;;;5108050;27;19912;-90
2022/06/20 06:00:53;;;;;;;;;;;;;;;;;;5136412;27;19922;-90
2022/06/20 06:03:26;;;;;;;;;;;;;;;;;;5118044;27;19911;-90
2022/06/20 06:06:02;;;;;;;;;;;;;;;;;;5117765;27;19925;-90
2022/06/20 06:08:39;;;;;;;;;;;;;;;;;;5136267;27;19922;-92
2022/06/20 06:11:23;;;;;;;;;;;;;;;;;;5117871;27;20390;-90
2022/06/20 06:13:48;;;;;;;;;;;;;;;;;;5136199;27;20385;-89
2022/06/20 06:19:21;;;;;;;;;;;;;;;;;;5136102;27;19926;-91
2022/06/20 06:21:47;;;;;;;;;;;;;;;;;;5134767;27;19923;-93
2022/06/20 06:24:15;;;;;;;;;;;;;;;;;;5117542;27;19968;-90
2022/06/20 06:26:42;;;;;;;;;;;;;;;;;;5118168;27;19920;-91
2022/06/20 06:29:13;;;;;;;;;;;;;;;;;;5117550;27;20259;-89
2022/06/20 06:31:40;;;;;;;;;;;;;;;;;;5117537;27;19984;-90
2022/06/20 06:34:38;;;;;;;;;;;;;;;;;;5117416;27;19940;-91
2022/06/20 06:37:08;;;;;;;;;;;;;;;;;;5050150;28;19920;-90
2022/06/20 06:39:37;;;;;;;;;;;;;;;;;;5115286;28;20328;-89
2022/06/20 06:42:03;;;;;;;;;;;;;;;;;;5096965;28;20276;-90
2022/06/20 06:44:47;;;;;;;;;;;;;;;;;;5097081;28;19962;-90
2022/06/20 06:47:19;;;;;;;;;;;;;;;;;;5096935;28;19916;-90
2022/06/20 06:49:46;;;;;;;;;;;;;;;;;;5115160;28;19916;-91
2022/06/20 06:52:15;;;;;;;;;;;;;;;;;;5115057;28;19968;-90
2022/06/20 06:54:54;;;;;;;;;;;;;;;;;;5096506;28;19920;-92
2022/06/20 06:57:19;;;;;;;;;;;;;;;;;;5097153;28;20255;-93
2022/06/20 07:27:13;;;;;;;;;;;;;;;;;;5135787;27;19930;-93
2022/06/20 07:29:43;;;;;;;;;;;;;;;;;;5116743;28;19926;-95
2022/06/20 07:32:11;;;;;;;;;;;;;;;;;;5135442;28;19915;-92
2022/06/20 07:34:39;;;;;;;;;;;;;;;;;;5135935;28;19915;-90
2022/06/20 07:40:16;;;;;;;;;;;;;;;;;;5138849;28;19922;-93
2022/06/20 07:42:54;;;;;;;;;;;;;;;;;;5138490;28;19941;-93
2022/06/20 07:45:39;;;;;;;;;;;;;;;;;;5118511;28;19922;-91
2022/06/20 07:48:09;;;;;;;;;;;;;;;;;;5118757;28;19922;-92
2022/06/20 07:50:42;;;;;;;;;;;;;;;;;;5141732;28;19998;-91
2022/06/20 07:53:17;;;;;;;;;;;;;;;;;;5144079;28;19915;-91
2022/06/20 07:55:53;;;;;;;;;;;;;;;;;;5125866;28;19915;-93
2022/06/20 07:58:33;;;;;;;;;;;;;;;;;;5125533;28;20006;-93
2022/06/20 08:01:06;;;;;;;;;;;;;;;;;;5144884;28;20294;-92
2022/06/20 08:03:38;;;;;;;;;;;;;;;;;;5126131;28;19930;-92
2022/06/20 08:06:06;;;;;;;;;;;;;;;;;;5125454;28;19899;-92
2022/06/20 08:08:42;;;;;;;;;;;;;;;;;;5121798;28;20325;-91
2022/06/20 08:11:39;;;;;;;;;;;;;;;;;;5137837;28;19922;-91
2022/06/20 08:14:02;;;;;;;;;;;;;;;;;;5138506;28;19962;-92
2022/06/20 08:16:29;;;;;;;;;;;;;;;;;;5142878;28;20010;-91
2022/06/20 08:18:55;;;;;;;;;;;;;;;;;;5124847;27;20001;-93
2022/06/20 08:21:24;;;;;;;;;;;;;;;;;;5125229;27;19947;-92
2022/06/20 08:23:58;;;;;;;;;;;;;;;;;;5124250;27;20431;-94
2022/06/20 08:26:43;;;;;;;;;;;;;;;;;;5121893;27;19924;-91
2022/06/20 08:32:15;;;;;;;;;;;;;;;;;;5142086;27;19960;-92
2022/06/20 08:47:07;;;;;;;;;;;;;;;;;;5137963;27;19941;-92
2022/06/20 08:49:54;;;;;;;;;;;;;;;;;;5123330;28;20409;-93
2022/06/20 08:52:35;;;;;;;;;;;;;;;;;;5116638;28;19968;-92
2022/06/20 08:55:28;;;;;;;;;;;;;;;;;;5121329;28;19919;-96
2022/06/20 08:57:53;;;;;;;;;;;;;;;;;;5122292;28;20358;-95
2022/06/20 09:00:33;;;;;;;;;;;;;;;;;;5125636;27;19944;-94
2022/06/20 09:03:04;;;;;;;;;;;;;;;;;;5122121;27;19999;-94
2022/06/20 09:05:30;;;;;;;;;;;;;;;;;;5131986;27;19916;-95
2022/06/20 09:08:15;;;;;;;;;;;;;;;;;;5138369;27;19953;-95
2022/06/20 09:13:49;;;;;;;;;;;;;;;;;;5139817;27;20018;-94
2022/06/20 09:19:17;;;;;;;;;;;;;;;;;;5141816;27;19965;-93
2022/06/20 09:22:01;;;;;;;;;;;;;;;;;;5142726;27;19915;-94
2022/06/20 09:27:48;;;;;;;;;;;;;;;;;;5142547;27;19965;-94
2022/06/20 09:30:17;;;;;;;;;;;;;;;;;;5143618;27;20405;-93
2022/06/20 09:33:01;;;;;;;;;;;;;;;;;;5137416;27;19919;-93
2022/06/20 09:48:04;;;;;;;;;;;;;;;;;;5140465;27;19934;-92
2022/06/20 09:50:29;;;;;;;;;;;;;;;;;;5141765;27;19920;-92
2022/06/20 09:53:04;;;;;;;;;;;;;;;;;;5144093;27;19922;-92
2022/06/20 09:55:29;;;;;;;;;;;;;;;;;;5142693;27;19925;-93
2022/06/20 09:58:05;;;;;;;;;;;;;;;;;;5140531;27;19950;-92
2022/06/20 10:04:09;;;;;;;;;;;;;;;;;;5132695;27;20355;-92
2022/06/20 10:06:40;;;;;;;;;;;;;;;;;;5142100;27;20010;-92
2022/06/20 10:09:14;;;;;;;;;;;;;;;;;;5140984;27;20358;-92
2022/06/20 10:11:50;;;;;;;;;;;;;;;;;;5141808;27;19919;-92
2022/06/20 10:14:25;;;;;;;;;;;;;;;;;;5142649;27;19951;-92
2022/06/20 10:26:19;;;;;;;;;;;;;;;;;;5137864;27;19967;-92
2022/06/20 10:29:03;;;;;;;;;;;;;;;;;;5137469;27;19915;-95
2022/06/20 10:31:46;;;;;;;;;;;;;;;;;;5136211;27;19954;-92
2022/06/20 10:34:12;;;;;;;;;;;;;;;;;;5138297;27;20366;-93
2022/06/20 10:36:43;;;;;;;;;;;;;;;;;;5139739;27;19915;-94
2022/06/20 10:39:10;;;;;;;;;;;;;;;;;;5138795;27;20283;-94
2022/06/20 10:41:57;;;;;;;;;;;;;;;;;;5139084;27;19923;-93
2022/06/20 10:44:25;;;;;;;;;;;;;;;;;;5138941;27;19916;-92
2022/06/20 10:50:14;;;;;;;;;;;;;;;;;;5123845;27;19937;-95
2022/06/20 10:53:01;;;;;;;;;;;;;;;;;;5112530;28;19919;-95
2022/06/20 10:55:33;;;;;;;;;;;;;;;;;;5117606;28;19916;-93
2022/06/20 10:58:17;;;;;;;;;;;;;;;;;;5118422;28;19954;-96
2022/06/20 11:00:48;;;;;;;;;;;;;;;;;;5116857;28;20397;-93
2022/06/20 11:03:19;;;;;;;;;;;;;;;;;;5116008;28;19920;-93
2022/06/20 11:05:54;;;;;;;;;;;;;;;;;;5116763;28;20385;-94
2022/06/20 11:08:38;;;;;;;;;;;;;;;;;;5114697;28;19916;-92
2022/06/20 11:17:18;;;;;;;;;;;;;;;;;;5115818;28;20014;-93
2022/06/20 11:20:02;;;;;;;;;;;;;;;;;;5115371;28;19915;-95
2022/06/20 11:22:27;;;;;;;;;;;;;;;;;;5114710;28;19943;-93
2022/06/20 11:25:11;;;;;;;;;;;;;;;;;;5115463;28;19916;-93
2022/06/20 11:27:52;;;;;;;;;;;;;;;;;;5115254;28;20452;-94
2022/06/20 11:30:25;;;;;;;;;;;;;;;;;;5113813;28;19930;-95
2022/06/20 11:33:09;;;;;;;;;;;;;;;;;;5115020;28;19915;-92
2022/06/20 11:35:38;;;;;;;;;;;;;;;;;;5116865;28;20366;-94
2022/06/20 11:38:22;;;;;;;;;;;;;;;;;;5134540;28;19922;-93
2022/06/20 11:41:11;;;;;;;;;;;;;;;;;;5130999;28;19972;-93
2022/06/20 11:43:55;;;;;;;;;;;;;;;;;;5120160;28;19915;-93
2022/06/20 11:46:39;;;;;;;;;;;;;;;;;;5134551;28;20003;-93
2022/06/20 11:49:25;;;;;;;;;;;;;;;;;;5134913;28;19945;-93
2022/06/20 11:51:53;;;;;;;;;;;;;;;;;;5134527;28;19965;-93
2022/06/20 11:54:31;;;;;;;;;;;;;;;;;;5117102;27;19977;-93
2022/06/20 12:06:22;;;;;;;;;;;;;;;;;;5220789;22;20179;-89
2022/06/20 12:12:36;;;;;;;;;;;;;;;;;;5078133;28;19961;-91
2022/06/20 12:18:24;;;;;;;;;;;;;;;;;;5081949;28;19928;-90
2022/06/20 12:23:59;;;;;;;;;;;;;;;;;;5083172;28;19922;-92
2022/06/20 12:26:29;;;;;;;;;;;;;;;;;;5081477;28;19916;-90
2022/06/20 12:28:55;;;;;;;;;;;;;;;;;;5083244;28;19916;-91
2022/06/20 12:31:32;;;;;;;;;;;;;;;;;;5083702;28;19917;-91
2022/06/20 12:34:06;;;;;;;;;;;;;;;;;;5080625;28;19928;-92
2022/06/20 12:36:38;;;;;;;;;;;;;;;;;;5081530;28;19943;-91
2022/06/20 12:39:09;;;;;;;;;;;;;;;;;;5082724;28;20371;-94
2022/06/20 12:41:37;;;;;;;;;;;;;;;;;;5084210;28;19917;-92
2022/06/20 12:44:26;;;;;;;;;;;;;;;;;;5082416;28;19966;-94
2022/06/20 12:46:59;;;;;;;;;;;;;;;;;;5080102;28;19916;-91
2022/06/20 12:49:47;;;;;;;;;;;;;;;;;;5078430;28;19952;-91
2022/06/20 13:04:43;;;;;;;;;;;;;;;;;;5067578;28;19925;-92
2022/06/20 13:07:26;;;;;;;;;;;;;;;;;;5070555;28;19917;-92
2022/06/20 13:10:06;;;;;;;;;;;;;;;;;;5070203;28;19920;-91
2022/06/20 13:12:43;;;;;;;;;;;;;;;;;;5076696;28;19923;-91
2022/06/20 13:15:28;;;;;;;;;;;;;;;;;;5075491;28;19921;-89
2022/06/20 13:18:07;;;;;;;;;;;;;;;;;;5058493;28;19916;-89
2022/06/20 13:20:36;;;;;;;;;;;;;;;;;;5056515;28;20441;-90
2022/06/20 13:23:19;;;;;;;;;;;;;;;;;;5058071;28;19917;-92
2022/06/20 13:25:56;;;;;;;;;;;;;;;;;;5077168;28;19944;-90
2022/06/20 13:28:37;;;;;;;;;;;;;;;;;;5074199;28;19916;-90
2022/06/20 13:31:20;;;;;;;;;;;;;;;;;;5063203;28;19921;-91
2022/06/20 13:33:54;;;;;;;;;;;;;;;;;;5055970;28;19920;-90
2022/06/20 13:36:38;;;;;;;;;;;;;;;;;;5064624;28;19928;-91
2022/06/20 13:39:06;;;;;;;;;;;;;;;;;;5062905;28;19959;-90
2022/06/20 13:41:42;;;;;;;;;;;;;;;;;;5058891;28;19921;-90
2022/06/20 13:44:27;;;;;;;;;;;;;;;;;;5063824;28;20324;-92
2022/06/20 13:47:01;;;;;;;;;;;;;;;;;;5069659;28;19952;-92
2022/06/20 13:49:48;;;;;;;;;;;;;;;;;;5062198;28;20017;-90
2022/06/20 13:52:22;;;;;;;;;;;;;;;;;;5048310;28;20019;-90
2022/06/20 13:55:15;;;;;;;;;;;;;;;;;;5059488;28;19924;-90
2022/06/20 13:57:45;;;;;;;;;;;;;;;;;;5041859;28;20386;-90
2022/06/20 14:00:16;;;;;;;;;;;;;;;;;;5059037;28;20371;-91
2022/06/20 14:02:43;;;;;;;;;;;;;;;;;;5073203;28;19917;-91
2022/06/20 14:17:54;;;;;;;;;;;;;;;;;;5087584;28;19967;-91
2022/06/20 14:29:33;;;;;;;;;;;;;;;;;;5077160;28;20295;-91
2022/06/20 14:32:08;;;;;;;;;;;;;;;;;;5053479;28;19916;-89
2022/06/20 14:37:48;;;;;;;;;;;;;;;;;;5086436;28;20014;-90
2022/06/20 14:40:22;;;;;;;;;;;;;;;;;;5079340;28;19938;-90
2022/06/20 14:43:00;;;;;;;;;;;;;;;;;;5078616;28;19923;-90
2022/06/20 14:48:57;;;;;;;;;;;;;;;;;;5095084;28;19990;-89
2022/06/20 14:54:32;;;;;;;;;;;;;;;;;;5096031;28;20326;-89
2022/06/20 15:03:18;;;;;;;;;;;;;;;;;;5082638;28;19927;-90
2022/06/20 15:05:59;;;;;;;;;;;;;;;;;;5072515;28;19973;-90
2022/06/20 15:08:41;;;;;;;;;;;;;;;;;;5074228;28;19923;-90
2022/06/20 15:11:18;;;;;;;;;;;;;;;;;;5073897;28;20294;-90
2022/06/20 15:13:44;;;;;;;;;;;;;;;;;;5057755;28;19920;-91
2022/06/20 15:19:18;;;;;;;;;;;;;;;;;;5097486;28;19939;-89
2022/06/20 15:21:49;;;;;;;;;;;;;;;;;;5095541;28;20409;-88
2022/06/20 15:24:33;;;;;;;;;;;;;;;;;;5098485;28;20011;-93
2022/06/20 15:27:04;;;;;;;;;;;;;;;;;;5086843;28;19916;-93
2022/06/20 15:29:58;;;;;;;;;;;;;;;;;;5075231;28;19956;-89
2022/06/20 15:32:44;;;;;;;;;;;;;;;;;;5072895;28;19917;-89
2022/06/20 15:35:19;;;;;;;;;;;;;;;;;;5072095;28;19940;-90
2022/06/20 15:37:45;;;;;;;;;;;;;;;;;;5095553;28;19917;-88
2022/06/20 15:40:28;;;;;;;;;;;;;;;;;;5086291;28;19938;-90
2022/06/20 15:43:01;;;;;;;;;;;;;;;;;;5080499;28;20011;-90
2022/06/20 15:45:45;;;;;;;;;;;;;;;;;;5079115;28;19924;-91
2022/06/20 15:51:17;;;;;;;;;;;;;;;;;;5214129;22;19982;-90
2022/06/20 15:54:01;;;;;;;;;;;;;;;;;;5079412;28;20283;-92
2022/06/20 15:56:33;;;;;;;;;;;;;;;;;;5078277;28;19924;-89
2022/06/20 15:59:17;;;;;;;;;;;;;;;;;;5080055;28;19920;-91
2022/06/20 16:02:21;;;;;;;;;;;;;;;;;;5068738;28;19924;-90
2022/06/20 16:05:05;;;;;;;;;;;;;;;;;;4998941;28;19918;-91
2022/06/20 16:07:37;;;;;;;;;;;;;;;;;;4998030;28;19918;-91
2022/06/20 16:10:09;;;;;;;;;;;;;;;;;;4997059;28;20488;-90
2022/06/20 16:12:43;;;;;;;;;;;;;;;;;;4999269;28;19964;-91
2022/06/20 16:15:13;;;;;;;;;;;;;;;;;;4995324;28;19917;-88
2022/06/20 16:17:39;;;;;;;;;;;;;;;;;;4995408;28;19913;-90
2022/06/20 16:20:05;;;;;;;;;;;;;;;;;;4995064;28;20362;-90
2022/06/20 16:22:31;;;;;;;;;;;;;;;;;;4994420;28;19917;-91
2022/06/20 16:25:08;;;;;;;;;;;;;;;;;;4979755;28;19918;-90
2022/06/20 16:27:36;;;;;;;;;;;;;;;;;;4978465;28;19918;-89
2022/06/20 16:30:25;;;;;;;;;;;;;;;;;;4994291;28;19918;-90
2022/06/20 16:32:55;;;;;;;;;;;;;;;;;;4972178;28;19918;-90
2022/06/20 16:35:29;;;;;;;;;;;;;;;;;;5019765;28;20114;-89
2022/06/20 16:38:20;;;;;;;;;;;;;;;;;;5053376;28;19913;-90
2022/06/20 16:41:04;;;;;;;;;;;;;;;;;;5056458;28;20012;-90
2022/06/20 16:43:36;;;;;;;;;;;;;;;;;;5056250;28;19919;-90
2022/06/20 16:46:04;;;;;;;;;;;;;;;;;;5056553;28;20291;-90
2022/06/20 16:48:29;;;;;;;;;;;;;;;;;;5060183;28;19925;-89
2022/06/20 16:50:55;;;;;;;;;;;;;;;;;;5085653;28;19927;-91
2022/06/20 16:53:25;;;;;;;;;;;;;;;;;;5058948;28;20042;-90
2022/06/20 16:55:54;;;;;;;;;;;;;;;;;;5059470;28;19916;-89
2022/06/20 17:09:37;;;;;;;;;;;;;;;;;;5105543;28;20389;-89
2022/06/20 17:12:07;;;;;;;;;;;;;;;;;;5096631;28;19926;-89
2022/06/20 17:14:33;;;;;;;;;;;;;;;;;;5098600;28;20375;-88
2022/06/20 17:17:14;;;;;;;;;;;;;;;;;;5099517;28;19923;-88
2022/06/20 17:19:43;;;;;;;;;;;;;;;;;;5091972;28;19985;-90
2022/06/20 17:22:21;;;;;;;;;;;;;;;;;;5090624;28;19916;-89
2022/06/20 17:24:46;;;;;;;;;;;;;;;;;;5090923;28;19964;-89
2022/06/20 17:27:27;;;;;;;;;;;;;;;;;;5097481;28;19959;-89
2022/06/20 17:29:58;;;;;;;;;;;;;;;;;;5131569;27;19923;-89
2022/06/20 17:32:41;;;;;;;;;;;;;;;;;;5097072;28;19916;-90
2022/06/20 17:35:18;;;;;;;;;;;;;;;;;;5096462;28;19969;-90
2022/06/20 17:37:53;;;;;;;;;;;;;;;;;;5097380;28;19925;-90
2022/06/20 17:40:43;;;;;;;;;;;;;;;;;;5111096;28;20005;-91
2022/06/20 17:43:42;;;;;;;;;;;;;;;;;;5111587;28;19912;-90
2022/06/20 17:46:07;;;;;;;;;;;;;;;;;;5087173;28;19916;-90
2022/06/20 17:48:39;;;;;;;;;;;;;;;;;;5110017;28;19923;-89
2022/06/20 17:51:08;;;;;;;;;;;;;;;;;;5109287;28;20359;-89
2022/06/20 17:53:47;;;;;;;;;;;;;;;;;;5105717;28;19919;-89
2022/06/20 17:56:19;;;;;;;;;;;;;;;;;;5111163;28;20334;-91
2022/06/20 17:58:50;;;;;;;;;;;;;;;;;;5098107;28;19955;-90
2022/06/20 18:01:19;;;;;;;;;;;;;;;;;;5090467;28;20027;-88
2022/06/20 18:03:47;;;;;;;;;;;;;;;;;;5090740;28;19916;-89
2022/06/20 18:06:15;;;;;;;;;;;;;;;;;;5090228;28;19920;-90
2022/06/20 18:08:56;;;;;;;;;;;;;;;;;;5100682;28;19923;-89
2022/06/20 18:11:38;;;;;;;;;;;;;;;;;;5098636;28;19921;-89
2022/06/20 18:14:15;;;;;;;;;;;;;;;;;;5087105;28;19959;-91
2022/06/20 18:17:13;;;;;;;;;;;;;;;;;;5065263;28;19917;-90
2022/06/20 18:19:42;;;;;;;;;;;;;;;;;;5046973;28;20011;-89
2022/06/20 18:22:23;;;;;;;;;;;;;;;;;;5058387;28;19956;-90
2022/06/20 18:24:48;;;;;;;;;;;;;;;;;;5055458;28;20647;-88
2022/06/20 18:27:24;;;;;;;;;;;;;;;;;;5058946;28;19916;-91
2022/06/20 18:29:49;;;;;;;;;;;;;;;;;;5057719;28;19917;-89
2022/06/20 18:32:17;;;;;;;;;;;;;;;;;;5058248;28;20451;-89
2022/06/20 18:34:44;;;;;;;;;;;;;;;;;;5056899;28;19970;-91
2022/06/20 18:37:25;;;;;;;;;;;;;;;;;;5057165;28;19924;-87
2022/06/20 18:39:57;;;;;;;;;;;;;;;;;;5056786;28;20003;-89
2022/06/20 18:42:43;;;;;;;;;;;;;;;;;;5056835;28;19924;-90
2022/06/20 18:45:09;;;;;;;;;;;;;;;;;;5056688;28;19917;-91
2022/06/20 18:47:44;;;;;;;;;;;;;;;;;;5057236;28;19917;-93
2022/06/20 18:50:25;;;;;;;;;;;;;;;;;;5056989;28;19917;-90
2022/06/20 18:52:51;;;;;;;;;;;;;;;;;;5057142;28;20003;-89
2022/06/20 18:55:35;;;;;;;;;;;;;;;;;;5056950;28;19971;-88
2022/06/20 18:58:13;;;;;;;;;;;;;;;;;;5058334;28;19917;-91
2022/06/20 19:00:53;;;;;;;;;;;;;;;;;;5056124;28;19924;-89
2022/06/20 19:03:37;;;;;;;;;;;;;;;;;;5067761;28;19950;-88
2022/06/20 19:06:05;;;;;;;;;;;;;;;;;;5079055;28;19924;-89
2022/06/20 19:08:40;;;;;;;;;;;;;;;;;;5076917;28;19924;-91
2022/06/20 19:11:19;;;;;;;;;;;;;;;;;;5074361;28;19927;-91
2022/06/20 19:13:45;;;;;;;;;;;;;;;;;;5077275;28;19960;-90
2022/06/20 19:16:18;;;;;;;;;;;;;;;;;;5078289;28;19927;-89
2022/06/20 19:19:08;;;;;;;;;;;;;;;;;;5079317;28;19971;-91
2022/06/20 19:21:33;;;;;;;;;;;;;;;;;;5096005;28;20019;-88
2022/06/20 19:24:00;;;;;;;;;;;;;;;;;;5065137;28;19964;-88
2022/06/20 19:26:30;;;;;;;;;;;;;;;;;;5060211;28;19943;-89
2022/06/20 19:29:17;;;;;;;;;;;;;;;;;;5066473;28;19917;-91
2022/06/20 19:31:43;;;;;;;;;;;;;;;;;;5075526;28;19927;-87
2022/06/20 19:34:21;;;;;;;;;;;;;;;;;;5075295;28;19917;-87
2022/06/20 19:36:58;;;;;;;;;;;;;;;;;;5074953;28;19924;-87
2022/06/20 19:39:30;;;;;;;;;;;;;;;;;;5075486;28;19920;-86
2022/06/20 19:42:10;;;;;;;;;;;;;;;;;;5074940;28;19978;-90
2022/06/20 19:44:45;;;;;;;;;;;;;;;;;;5086648;28;20002;-87
2022/06/20 19:47:26;;;;;;;;;;;;;;;;;;5093955;28;20301;-88
2022/06/20 19:49:53;;;;;;;;;;;;;;;;;;5096010;28;19930;-88
2022/06/20 19:52:40;;;;;;;;;;;;;;;;;;5095944;28;19916;-91
2022/06/20 19:55:11;;;;;;;;;;;;;;;;;;5063320;28;20286;-89
2022/06/20 19:58:13;;;;;;;;;;;;;;;;;;5067142;28;19920;-89
2022/06/20 20:00:46;;;;;;;;;;;;;;;;;;5058729;28;19951;-92
2022/06/20 20:03:14;;;;;;;;;;;;;;;;;;5057099;28;19921;-90
2022/06/20 20:05:42;;;;;;;;;;;;;;;;;;5067560;28;19942;-89
2022/06/20 20:08:08;;;;;;;;;;;;;;;;;;5067776;28;19920;-89
2022/06/20 20:10:35;;;;;;;;;;;;;;;;;;5063840;28;19995;-88
2022/06/20 20:13:09;;;;;;;;;;;;;;;;;;5068032;28;19928;-87
2022/06/20 20:15:41;;;;;;;;;;;;;;;;;;5065314;28;20387;-87
2022/06/20 20:18:15;;;;;;;;;;;;;;;;;;5054288;28;19917;-87
2022/06/20 20:20:59;;;;;;;;;;;;;;;;;;5075752;28;19921;-90
2022/06/20 20:23:26;;;;;;;;;;;;;;;;;;5076556;28;19912;-90
2022/06/20 20:25:57;;;;;;;;;;;;;;;;;;5076215;28;19924;-90
2022/06/20 20:28:31;;;;;;;;;;;;;;;;;;5075945;28;19919;-93
2022/06/20 20:31:17;;;;;;;;;;;;;;;;;;5075707;28;19925;-87
2022/06/20 20:33:42;;;;;;;;;;;;;;;;;;5064214;28;19912;-88
2022/06/20 20:36:17;;;;;;;;;;;;;;;;;;5065038;28;19927;-89
2022/06/20 20:38:48;;;;;;;;;;;;;;;;;;5067831;28;19924;-86
2022/06/20 20:41:33;;;;;;;;;;;;;;;;;;5079040;28;19920;-90
2022/06/20 20:43:58;;;;;;;;;;;;;;;;;;5076076;28;19919;-88
2022/06/20 20:46:44;;;;;;;;;;;;;;;;;;5082248;28;19916;-90
2022/06/20 20:49:32;;;;;;;;;;;;;;;;;;5083057;28;19916;-92
2022/06/20 20:52:19;;;;;;;;;;;;;;;;;;5071373;28;19920;-88
2022/06/20 20:54:45;;;;;;;;;;;;;;;;;;5067650;28;19932;-92
2022/06/20 20:57:23;;;;;;;;;;;;;;;;;;5072715;28;19995;-90
2022/06/20 21:00:01;;;;;;;;;;;;;;;;;;5090029;28;19920;-92
2022/06/20 21:02:30;;;;;;;;;;;;;;;;;;5081059;28;19929;-91
2022/06/20 21:05:14;;;;;;;;;;;;;;;;;;5076167;28;19927;-88
2022/06/20 21:07:42;;;;;;;;;;;;;;;;;;5071119;28;19960;-87
2022/06/20 21:10:19;;;;;;;;;;;;;;;;;;5074124;28;19920;-86
2022/06/20 21:12:49;;;;;;;;;;;;;;;;;;5071458;28;19948;-88
2022/06/20 21:15:19;;;;;;;;;;;;;;;;;;5054136;28;19916;-86
2022/06/20 21:17:55;;;;;;;;;;;;;;;;;;5055302;28;19960;-90